Time;durP1;ratioP1;P1;durP2;ratioP2;P2;SDS_P1;SDS_P2;PMS_P1;PMS_P2;Temp;Humidity;BMP_temperature;BMP_pressure;BME280_temperature;BME280_humidity;BME280_pressure;Samples;Min_cycle;Max_cycle;Signal;HPM_P1;HPM_P2
2021/06/17 00:01:42;;;;;;;8.32;7.05;;;22.40;99.90;;;;;;5013969;28;20267;-65
2021/06/17 00:04:08;;;;;;;9.13;7.93;;;22.40;99.90;;;;;;5022371;28;20175;-66
2021/06/17 00:06:34;;;;;;;8.65;7.68;;;22.40;99.90;;;;;;5032985;28;20738;-65
2021/06/17 00:08:59;;;;;;;8.85;8.05;;;22.50;99.90;;;;;;5026634;28;20188;-66
2021/06/17 00:11:25;;;;;;;7.55;7.03;;;22.50;99.90;;;;;;5013776;28;20172;-66
2021/06/17 00:13:51;;;;;;;8.70;7.90;;;22.40;99.90;;;;;;5018796;28;20181;-66
2021/06/17 00:16:18;;;;;;;8.80;8.05;;;22.40;99.90;;;;;;5033785;28;20232;-66
2021/06/17 00:18:44;;;;;;;8.45;7.55;;;22.30;99.90;;;;;;5030101;28;20196;-66
2021/06/17 00:21:10;;;;;;;9.63;8.82;;;22.20;99.90;;;;;;5013674;28;20183;-66
2021/06/17 00:23:36;;;;;;;8.80;8.10;;;22.20;99.90;;;;;;5015453;28;20165;-66
2021/06/17 00:26:03;;;;;;;9.48;8.60;;;22.10;99.90;;;;;;5033608;28;20254;-66
2021/06/17 00:28:29;;;;;;;9.15;8.55;;;22.10;99.90;;;;;;5032869;28;20242;-66
2021/06/17 00:30:55;;;;;;;9.30;8.40;;;22.00;99.90;;;;;;5013303;28;20172;-65
2021/06/17 00:33:21;;;;;;;8.75;7.93;;;22.00;99.90;;;;;;5013699;28;20176;-65
2021/06/17 00:35:47;;;;;;;8.63;8.00;;;22.00;99.90;;;;;;5032039;28;20243;-65
2021/06/17 00:38:14;;;;;;;8.70;7.97;;;22.00;99.90;;;;;;5033231;28;20206;-65
2021/06/17 00:40:40;;;;;;;10.98;8.90;;;22.00;99.90;;;;;;5015554;28;20180;-66
2021/06/17 00:43:06;;;;;;;9.30;8.60;;;22.00;99.90;;;;;;5013568;28;20173;-66
2021/06/17 00:45:41;;;;;;;9.25;8.45;;;22.00;99.90;;;;;;5028597;28;20195;-66
2021/06/17 00:48:07;;;;;;;9.18;8.45;;;21.90;99.90;;;;;;5033154;28;20688;-65
2021/06/17 00:50:37;;;;;;;9.13;8.32;;;21.90;99.90;;;;;;5017263;28;20184;-65
2021/06/17 00:53:07;;;;;;;9.32;8.52;;;21.90;99.90;;;;;;5013234;28;20187;-65
2021/06/17 00:55:33;;;;;;;8.73;8.02;;;21.90;99.90;;;;;;5026399;28;20699;-65
2021/06/17 00:57:59;;;;;;;8.30;7.50;;;21.90;99.90;;;;;;5032840;28;20195;-66
2021/06/17 01:00:25;;;;;;;8.60;7.78;;;21.80;99.90;;;;;;5019404;28;20254;-66
2021/06/17 01:02:50;;;;;;;8.73;7.82;;;21.80;99.90;;;;;;5019725;28;20182;-66
2021/06/17 01:05:20;;;;;;;9.00;8.10;;;21.80;99.90;;;;;;5032716;28;20175;-66
2021/06/17 01:07:57;;;;;;;8.43;7.82;;;21.80;99.90;;;;;;5026937;28;20550;-66
2021/06/17 01:10:47;;;;;;;9.27;8.38;;;21.80;99.90;;;;;;5012667;28;20172;-66
2021/06/17 01:13:19;;;;;;;8.93;8.27;;;21.80;99.90;;;;;;5021621;28;20186;-66
2021/06/17 01:15:55;;;;;;;8.73;8.10;;;21.80;99.90;;;;;;5032599;28;20168;-65
2021/06/17 01:18:21;;;;;;;9.57;8.63;;;21.70;99.90;;;;;;5023054;28;20215;-66
2021/06/17 01:20:56;;;;;;;9.48;8.68;;;21.70;99.90;;;;;;5011986;28;20177;-66
2021/06/17 01:23:52;;;;;;;9.43;8.63;;;21.70;99.90;;;;;;5021487;28;20201;-66
2021/06/17 01:26:48;;;;;;;9.48;8.73;;;21.60;99.90;;;;;;5024370;28;20291;-66
2021/06/17 01:29:21;;;;;;;8.52;7.78;;;21.60;99.90;;;;;;5010694;28;20187;-65
2021/06/17 01:31:48;;;;;;;8.38;7.75;;;21.50;99.90;;;;;;5021854;28;20250;-66
2021/06/17 01:34:15;;;;;;;8.88;8.02;;;21.50;99.90;;;;;;5032261;28;20210;-65
2021/06/17 01:36:48;;;;;;;8.60;7.85;;;21.50;99.90;;;;;;5023622;28;20188;-66
2021/06/17 01:39:17;;;;;;;10.23;9.23;;;21.40;99.90;;;;;;5012570;28;20172;-65
2021/06/17 01:41:47;;;;;;;9.60;8.68;;;21.40;99.90;;;;;;5019896;28;20179;-66
2021/06/17 01:44:13;;;;;;;10.07;9.23;;;21.30;99.90;;;;;;5032306;28;20278;-66
2021/06/17 01:46:41;;;;;;;10.45;9.65;;;21.20;99.90;;;;;;5024697;28;20685;-65
2021/06/17 01:49:07;;;;;;;10.25;9.35;;;21.20;99.90;;;;;;5012432;28;20172;-65
2021/06/17 01:51:35;;;;;;;10.43;9.30;;;21.20;99.90;;;;;;5017329;28;20180;-66
2021/06/17 01:54:02;;;;;;;9.77;9.07;;;21.10;99.90;;;;;;5032003;28;20171;-66
2021/06/17 01:56:29;;;;;;;10.25;9.55;;;21.10;99.90;;;;;;5027319;28;20187;-66
2021/06/17 01:58:57;;;;;;;11.60;9.77;;;21.10;99.90;;;;;;5016696;28;20644;-65
2021/06/17 02:01:26;;;;;;;11.25;10.45;;;21.10;99.90;;;;;;5028402;28;20183;-65
2021/06/17 02:03:52;;;;;;;10.23;9.27;;;21.10;99.90;;;;;;5012154;28;20553;-65
2021/06/17 02:06:19;;;;;;;11.25;9.18;;;21.00;99.90;;;;;;5012963;28;20227;-66
2021/06/17 02:08:51;;;;;;;9.30;8.60;;;21.00;99.90;;;;;;5011966;28;20196;-66
2021/06/17 02:11:17;;;;;;;10.18;9.30;;;20.90;99.90;;;;;;5012798;28;20172;-66
2021/06/17 02:13:44;;;;;;;10.63;9.80;;;20.90;99.90;;;;;;5031827;28;20661;-65
2021/06/17 02:16:11;;;;;;;9.93;9.02;;;20.90;99.90;;;;;;5031436;28;20202;-65
2021/06/17 02:18:38;;;;;;;8.95;8.32;;;20.90;99.90;;;;;;5011959;28;20569;-65
2021/06/17 02:21:06;;;;;;;9.02;8.32;;;20.80;99.90;;;;;;5011535;28;20176;-66
2021/06/17 02:23:34;;;;;;;9.55;8.75;;;20.80;99.90;;;;;;5030274;28;20257;-66
2021/06/17 02:26:01;;;;;;;9.32;8.57;;;20.70;99.90;;;;;;5031461;28;20201;-65
2021/06/17 02:28:30;;;;;;;9.57;8.48;;;20.70;99.90;;;;;;5013966;28;20568;-66
2021/06/17 02:31:01;;;;;;;10.07;9.32;;;20.70;99.90;;;;;;5011489;28;20172;-66
2021/06/17 02:33:29;;;;;;;10.40;9.38;;;20.70;99.90;;;;;;5029329;28;20270;-66
2021/06/17 02:35:55;;;;;;;9.73;9.00;;;20.70;99.90;;;;;;5035578;28;20175;-66
2021/06/17 02:38:28;;;;;;;10.25;9.45;;;20.60;99.90;;;;;;5019822;28;20204;-65
2021/06/17 02:40:59;;;;;;;10.10;9.10;;;20.60;99.90;;;;;;5015483;28;20176;-65
2021/06/17 02:43:25;;;;;;;9.88;9.07;;;20.60;99.90;;;;;;5030913;28;20666;-66
2021/06/17 02:45:51;;;;;;;8.95;8.25;;;20.50;99.90;;;;;;5035477;28;20543;-65
2021/06/17 02:48:18;;;;;;;8.65;7.78;;;20.50;99.90;;;;;;5021127;28;20254;-65
2021/06/17 02:50:44;;;;;;;8.93;8.27;;;20.50;99.90;;;;;;5015130;28;20176;-66
2021/06/17 02:53:10;;;;;;;9.95;9.07;;;20.40;99.90;;;;;;5027668;28;20633;-66
2021/06/17 02:55:37;;;;;;;10.38;9.43;;;20.40;99.90;;;;;;5035325;28;20207;-66
2021/06/17 02:58:31;;;;;;;9.60;8.88;;;20.40;99.90;;;;;;5024215;28;20211;-65
2021/06/17 03:01:19;;;;;;;10.00;9.10;;;20.40;99.90;;;;;;5013942;28;20196;-66
2021/06/17 03:03:49;;;;;;;10.55;9.65;;;20.40;99.90;;;;;;5035144;28;20179;-65
2021/06/17 03:06:20;;;;;;;9.13;8.32;;;20.30;99.90;;;;;;5031687;28;20211;-66
2021/06/17 03:09:08;;;;;;;10.68;9.80;;;20.30;99.90;;;;;;5015153;28;20224;-65
2021/06/17 03:11:35;;;;;;;9.90;9.00;;;20.30;99.90;;;;;;5019905;28;20180;-65
2021/06/17 03:14:14;;;;;;;11.25;10.18;;;20.20;99.90;;;;;;5034465;28;20254;-66
2021/06/17 03:16:42;;;;;;;10.05;9.18;;;20.20;99.90;;;;;;5028481;28;20209;-66
2021/06/17 03:19:10;;;;;;;10.45;9.65;;;20.20;99.90;;;;;;5013881;28;20261;-66
2021/06/17 03:21:39;;;;;;;10.30;9.60;;;20.10;99.90;;;;;;5017045;28;20175;-66
2021/06/17 03:24:08;;;;;;;11.88;10.70;;;20.10;99.90;;;;;;5034663;28;20640;-66
2021/06/17 03:26:37;;;;;;;11.15;10.23;;;20.10;99.90;;;;;;5029268;28;20210;-65
2021/06/17 03:29:03;;;;;;;10.50;9.68;;;20.10;99.90;;;;;;5014922;28;20187;-66
2021/06/17 03:31:30;;;;;;;10.82;9.82;;;20.10;99.90;;;;;;5015811;28;21568;-66
2021/06/17 03:33:57;;;;;;;10.38;9.57;;;20.10;99.90;;;;;;5034286;28;20184;-66
2021/06/17 03:36:25;;;;;;;9.93;9.13;;;20.20;99.90;;;;;;5033054;28;20549;-65
2021/06/17 03:38:52;;;;;;;10.88;9.80;;;20.20;99.90;;;;;;5014556;28;20183;-66
2021/06/17 03:41:19;;;;;;;11.00;10.20;;;20.20;99.90;;;;;;5014203;28;20174;-66
2021/06/17 03:43:46;;;;;;;11.18;10.18;;;20.20;99.90;;;;;;5033578;28;20171;-67
2021/06/17 03:46:13;;;;;;;10.35;9.40;;;20.20;99.90;;;;;;5034183;28;20291;-65
2021/06/17 03:48:41;;;;;;;12.77;11.68;;;20.30;99.90;;;;;;5033373;28;20294;-66
2021/06/17 03:51:08;;;;;;;10.88;9.98;;;20.30;99.90;;;;;;5032833;28;20171;-66
2021/06/17 03:53:34;;;;;;;10.43;9.63;;;20.30;99.90;;;;;;5016925;28;20238;-66
2021/06/17 03:56:01;;;;;;;9.88;9.18;;;20.30;99.90;;;;;;5014541;28;20176;-65
2021/06/17 03:58:28;;;;;;;12.20;10.68;;;20.30;99.90;;;;;;5029738;28;20195;-66
2021/06/17 04:00:56;;;;;;;10.98;10.07;;;20.40;99.90;;;;;;5033742;28;20176;-65
2021/06/17 04:03:25;;;;;;;9.52;8.80;;;20.50;99.90;;;;;;5019377;28;20180;-66
2021/06/17 04:05:51;;;;;;;10.02;9.02;;;20.50;99.90;;;;;;5014053;28;20331;-66
2021/06/17 04:08:19;;;;;;;9.98;9.27;;;20.60;99.90;;;;;;5027036;28;20222;-65
2021/06/17 04:10:46;;;;;;;10.35;9.40;;;20.80;99.90;;;;;;5033340;28;20251;-66
2021/06/17 04:13:13;;;;;;;11.05;10.32;;;20.90;99.90;;;;;;5022066;28;20187;-66
2021/06/17 04:15:41;;;;;;;10.00;9.25;;;21.10;99.90;;;;;;5013946;28;20250;-65
2021/06/17 04:18:08;;;;;;;9.30;8.60;;;21.30;99.90;;;;;;5024097;28;20199;-66
2021/06/17 04:20:39;;;;;;;8.20;7.50;;;21.40;99.90;;;;;;5033261;28;20194;-66
2021/06/17 04:23:06;;;;;;;9.45;8.65;;;21.60;99.90;;;;;;5024061;28;20179;-65
2021/06/17 04:25:33;;;;;;;9.05;8.25;;;21.90;99.90;;;;;;5013918;28;20172;-66
2021/06/17 04:28:01;;;;;;;8.80;8.10;;;22.10;99.90;;;;;;5021490;28;20207;-65
2021/06/17 04:30:28;;;;;;;8.43;7.70;;;22.30;99.90;;;;;;5033134;28;20251;-65
2021/06/17 04:32:56;;;;;;;7.63;7.03;;;22.40;99.90;;;;;;5026686;28;20176;-67
2021/06/17 04:35:24;;;;;;;9.32;8.38;;;22.60;99.90;;;;;;5016819;28;20171;-66
2021/06/17 04:37:51;;;;;;;7.47;6.97;;;22.80;99.90;;;;;;5032170;28;20219;-65
2021/06/17 04:40:18;;;;;;;8.38;7.68;;;23.00;99.90;;;;;;5029833;28;20255;-65
2021/06/17 04:42:44;;;;;;;8.40;7.70;;;23.20;99.90;;;;;;5013352;28;20200;-64
2021/06/17 04:45:11;;;;;;;8.38;7.55;;;23.40;99.90;;;;;;5014678;28;20199;-65
2021/06/17 04:47:38;;;;;;;8.77;8.18;;;23.50;99.90;;;;;;5074786;22;20226;-66
2021/06/17 04:50:09;;;;;;;8.38;7.68;;;23.60;99.90;;;;;;5013152;28;20546;-65
2021/06/17 04:52:36;;;;;;;8.40;7.70;;;23.80;99.90;;;;;;4993713;28;20177;-65
2021/06/17 04:55:04;;;;;;;8.70;7.90;;;24.00;99.90;;;;;;4993979;28;20231;-64
2021/06/17 04:57:29;;;;;;;7.63;7.03;;;24.20;99.90;;;;;;5030882;28;20200;-65
2021/06/17 04:59:55;;;;;;;8.13;7.38;;;24.30;99.90;;;;;;5027842;28;20234;-65
2021/06/17 05:02:20;;;;;;;7.95;7.25;;;24.40;99.90;;;;;;5013098;28;20269;-65
2021/06/17 05:04:46;;;;;;;8.63;7.97;;;24.60;99.90;;;;;;5014844;28;20191;-65
2021/06/17 05:12:25;;;;;;;7.28;6.68;;;24.90;99.90;;;;;;5025514;28;20317;-65
2021/06/17 05:14:51;;;;;;;8.93;8.20;;;25.10;99.90;;;;;;5031009;28;20928;-65
2021/06/17 05:17:16;;;;;;;8.25;7.55;;;25.30;99.90;;;;;;5012876;28;20192;-65
2021/06/17 05:19:42;;;;;;;8.07;7.43;;;25.40;99.90;;;;;;5012623;28;20177;-64
2021/06/17 05:22:11;;;;;;;7.63;7.03;;;25.40;99.90;;;;;;5031758;28;20195;-64
2021/06/17 05:24:37;;;;;;;8.45;7.78;;;25.60;99.90;;;;;;5016400;28;20275;-65
2021/06/17 05:27:03;;;;;;;8.30;7.65;;;25.70;99.90;;;;;;5012635;28;20732;-64
2021/06/17 05:29:29;;;;;;;7.63;6.97;;;25.80;99.90;;;;;;5026432;28;20179;-65
2021/06/17 05:31:55;;;;;;;7.82;7.22;;;26.00;99.90;;;;;;5031938;28;20230;-65
2021/06/17 05:34:21;;;;;;;6.82;6.32;;;26.10;99.90;;;;;;5019898;28;20184;-65
2021/06/17 05:36:47;;;;;;;7.13;6.47;;;26.10;99.90;;;;;;5012335;28;20168;-65
2021/06/17 05:39:12;;;;;;;6.85;6.43;;;26.20;99.90;;;;;;5022793;28;20207;-65
2021/06/17 05:41:38;;;;;;;6.72;6.10;;;26.40;99.90;;;;;;5031768;28;20668;-64
2021/06/17 05:44:04;;;;;;;6.68;6.10;;;26.60;99.90;;;;;;5023420;28;20546;-64
2021/06/17 05:46:30;;;;;;;6.85;6.30;;;26.90;99.90;;;;;;5012236;28;20206;-65
2021/06/17 05:48:55;;;;;;;7.38;6.78;;;27.20;99.90;;;;;;5018721;28;20215;-65
2021/06/17 05:51:21;;;;;;;9.93;9.23;;;27.50;99.90;;;;;;5031873;28;20274;-65
2021/06/17 05:53:46;;;;;;;7.95;7.40;;;28.00;99.90;;;;;;5030410;28;20172;-65
2021/06/17 05:56:12;;;;;;;6.15;5.68;;;28.60;99.90;;;;;;5032019;28;20175;-65
2021/06/17 05:58:38;;;;;;;6.93;6.25;;;29.20;99.90;;;;;;5027602;28;20206;-65
2021/06/17 06:01:04;;;;;;;7.70;6.25;;;29.50;99.90;;;;;;5011851;28;20173;-65
2021/06/17 06:03:32;;;;;;;6.90;6.30;;;29.50;99.90;;;;;;5013155;28;20176;-65
2021/06/17 06:05:58;;;;;;;6.60;6.10;;;29.30;99.90;;;;;;5031796;28;20212;-65
2021/06/17 06:08:23;;;;;;;6.03;5.63;;;29.10;99.90;;;;;;5023360;28;20199;-65
2021/06/17 06:10:49;;;;;;;6.13;5.57;;;29.00;99.90;;;;;;5009667;28;20263;-65
2021/06/17 06:13:15;;;;;;;6.93;6.30;;;28.90;99.90;;;;;;5024975;28;20612;-65
2021/06/17 06:15:41;;;;;;;7.57;6.97;;;28.80;99.90;;;;;;5030899;28;20184;-65
2021/06/17 06:18:08;;;;;;;6.60;6.10;;;28.70;99.90;;;;;;5019333;28;20254;-65
2021/06/17 06:20:35;;;;;;;6.65;6.20;;;28.20;99.90;;;;;;5024144;28;20211;-65
2021/06/17 06:23:01;;;;;;;7.82;6.88;;;27.90;99.90;;;;;;5020955;28;20199;-65
2021/06/17 06:25:27;;;;;;;7.38;6.93;;;27.90;99.90;;;;;;5011697;28;20183;-66
2021/06/17 06:27:53;;;;;;;7.43;6.88;;;28.00;99.90;;;;;;5012879;28;20820;-65
2021/06/17 06:30:19;;;;;;;5.85;5.45;;;28.30;99.90;;;;;;5011529;28;20594;-66
2021/06/17 06:32:44;;;;;;;5.93;5.43;;;28.60;99.90;;;;;;5018366;28;20180;-66
2021/06/17 06:35:11;;;;;;;6.50;5.95;;;28.90;99.90;;;;;;5031519;28;20176;-65
2021/06/17 06:37:37;;;;;;;6.80;6.20;;;29.20;99.90;;;;;;5029714;28;20585;-66
2021/06/17 06:40:04;;;;;;;6.82;6.32;;;29.40;99.90;;;;;;5031317;28;20724;-66
2021/06/17 06:42:29;;;;;;;7.18;6.68;;;29.50;99.90;;;;;;5027659;28;20565;-66
2021/06/17 06:44:55;;;;;;;7.03;6.53;;;29.70;99.90;;;;;;5011643;28;20175;-66
2021/06/17 06:47:21;;;;;;;6.13;5.63;;;29.90;99.90;;;;;;5013372;28;20208;-65
2021/06/17 06:49:47;;;;;;;5.72;5.32;;;30.10;99.90;;;;;;5031152;28;20540;-65
2021/06/17 06:52:12;;;;;;;6.35;5.47;;;30.50;99.90;;;;;;5031336;28;20168;-65
2021/06/17 06:54:38;;;;;;;6.90;6.30;;;30.90;99.90;;;;;;5029873;28;20191;-66
2021/06/17 06:57:04;;;;;;;6.70;6.20;;;31.10;99.90;;;;;;5031330;28;20180;-66
2021/06/17 06:59:30;;;;;;;6.53;6.00;;;31.20;99.90;;;;;;5012890;28;20180;-66
2021/06/17 07:01:57;;;;;;;6.50;6.00;;;31.30;99.90;;;;;;5011295;28;20188;-66
2021/06/17 07:04:23;;;;;;;6.47;6.07;;;31.70;99.90;;;;;;5011585;28;20219;-66
2021/06/17 07:06:48;;;;;;;6.75;6.25;;;31.70;99.90;;;;;;5012298;28;20227;-66
2021/06/17 07:09:14;;;;;;;6.22;5.78;;;32.00;99.90;;;;;;5011513;28;20613;-66
2021/06/17 07:11:40;;;;;;;7.43;6.93;;;31.70;99.90;;;;;;5013037;28;20623;-66
2021/06/17 07:14:07;;;;;;;6.38;4.70;;;31.90;99.90;;;;;;5031197;28;20174;-66
2021/06/17 07:16:33;;;;;;;5.13;4.72;;;32.20;99.90;;;;;;5030385;28;20632;-66
2021/06/17 07:18:58;;;;;;;5.80;5.30;;;32.10;99.90;;;;;;5011510;28;20299;-65
2021/06/17 07:21:24;;;;;;;7.22;6.18;;;32.40;99.90;;;;;;5014708;28;20259;-65
2021/06/17 07:23:51;;;;;;;6.20;5.80;;;32.80;99.90;;;;;;5033235;28;20175;-66
2021/06/17 07:26:20;;;;;;;6.30;5.70;;;32.70;99.90;;;;;;5034666;28;20210;-65
2021/06/17 07:28:46;;;;;;;8.82;6.75;;;32.40;99.90;;;;;;5016784;28;20258;-65
2021/06/17 07:31:11;;;;;;;7.43;6.68;;;32.30;99.90;;;;;;5014593;28;20176;-65
2021/06/17 07:33:37;;;;;;;7.45;6.85;;;32.30;99.90;;;;;;5029716;28;20179;-65
2021/06/17 07:36:03;;;;;;;5.47;4.93;;;32.60;99.90;;;;;;5034455;28;20180;-65
2021/06/17 07:38:28;;;;;;;6.22;5.63;;;33.00;99.90;;;;;;5020718;28;20200;-66
2021/06/17 07:40:54;;;;;;;6.20;5.38;;;33.20;99.90;;;;;;5014078;28;20216;-65
2021/06/17 07:43:20;;;;;;;5.75;5.32;;;33.40;99.90;;;;;;5026051;28;20589;-66
2021/06/17 07:45:45;;;;;;;6.20;5.43;;;33.70;99.90;;;;;;5034243;28;20211;-66
2021/06/17 07:48:11;;;;;;;5.47;5.07;;;33.70;99.90;;;;;;5024240;28;20204;-66
2021/06/17 07:50:39;;;;;;;7.32;6.65;;;33.40;99.90;;;;;;5014036;28;20168;-65
2021/06/17 07:53:05;;;;;;;6.65;6.20;;;33.10;99.90;;;;;;5022448;28;20168;-66
2021/06/17 07:55:30;;;;;;;5.82;5.43;;;33.10;99.90;;;;;;5034210;28;20171;-65
2021/06/17 07:57:56;;;;;;;5.57;5.18;;;33.30;99.90;;;;;;5027371;28;20207;-65
2021/06/17 08:00:21;;;;;;;5.55;5.15;;;33.40;99.90;;;;;;5014003;28;20172;-66
2021/06/17 08:02:47;;;;;;;7.45;5.97;;;33.80;99.90;;;;;;5018186;28;20250;-66
2021/06/17 08:05:13;;;;;;;5.82;5.20;;;34.20;99.90;;;;;;5034015;28;20210;-66
2021/06/17 08:07:38;;;;;;;5.05;4.30;;;34.70;99.90;;;;;;5030882;28;20222;-66
2021/06/17 08:10:06;;;;;;;4.32;4.03;;;35.10;99.90;;;;;;5013836;28;20194;-65
2021/06/17 08:12:32;;;;;;;5.32;4.45;;;35.10;99.90;;;;;;5015159;28;20176;-66
2021/06/17 08:14:58;;;;;;;5.65;5.25;;;35.00;99.90;;;;;;5033701;28;20218;-65
2021/06/17 08:17:23;;;;;;;5.10;4.70;;;34.90;99.90;;;;;;5033503;28;20191;-66
2021/06/17 08:19:49;;;;;;;5.13;4.72;;;34.90;99.90;;;;;;5013829;28;20191;-65
2021/06/17 08:22:15;;;;;;;4.90;4.47;;;35.10;99.90;;;;;;5013916;28;20215;-66
2021/06/17 08:24:43;;;;;;;4.90;4.40;;;35.10;99.90;;;;;;5031077;28;20176;-66
2021/06/17 08:27:09;;;;;;;5.25;4.78;;;35.00;99.90;;;;;;5033413;28;20294;-66
2021/06/17 08:29:35;;;;;;;5.25;4.85;;;35.20;99.90;;;;;;5017179;28;20180;-66
2021/06/17 08:32:00;;;;;;;4.78;4.18;;;35.40;99.90;;;;;;5013376;28;20172;-66
2021/06/17 08:34:26;;;;;;;5.40;5.00;;;35.60;99.90;;;;;;5027947;28;20647;-66
2021/06/17 08:36:53;;;;;;;5.00;4.60;;;35.70;99.90;;;;;;5033108;28;20592;-65
2021/06/17 08:39:19;;;;;;;5.05;4.65;;;35.80;99.90;;;;;;5020407;28;20187;-65
2021/06/17 08:41:45;;;;;;;4.85;4.35;;;35.90;99.90;;;;;;5018781;28;20172;-66
2021/06/17 08:44:10;;;;;;;4.90;4.50;;;36.20;99.90;;;;;;5033324;28;20168;-65
2021/06/17 08:46:38;;;;;;;4.88;4.28;;;36.20;99.90;;;;;;5032692;28;20610;-65
2021/06/17 08:49:04;;;;;;;6.25;5.10;;;36.30;99.90;;;;;;5015748;28;20203;-64
2021/06/17 08:51:32;;;;;;;4.03;3.72;;;36.50;99.90;;;;;;5015729;28;20180;-66
2021/06/17 08:53:58;;;;;;;4.72;4.32;;;36.60;99.90;;;;;;5032933;28;20551;-64
2021/06/17 08:56:25;;;;;;;4.85;4.55;;;36.50;99.90;;;;;;5027907;28;20214;-64
2021/06/17 08:58:53;;;;;;;5.15;4.85;;;36.60;99.90;;;;;;5032775;28;20203;-65
2021/06/17 09:01:21;;;;;;;5.30;4.90;;;36.50;99.90;;;;;;5027560;28;20271;-64
2021/06/17 09:03:46;;;;;;;4.78;4.38;;;36.50;99.90;;;;;;5013048;28;20183;-65
2021/06/17 09:06:12;;;;;;;4.93;4.32;;;36.70;99.90;;;;;;5016273;28;20200;-64
2021/06/17 09:08:39;;;;;;;4.30;4.00;;;36.90;99.90;;;;;;5031952;28;20191;-65
2021/06/17 09:11:17;;;;;;;4.10;3.80;;;37.30;99.90;;;;;;5030093;28;20521;-65
2021/06/17 09:13:43;;;;;;;4.28;3.97;;;37.60;99.90;;;;;;5031819;28;20206;-65
2021/06/17 09:16:08;;;;;;;4.43;4.03;;;38.10;99.90;;;;;;5030670;28;20207;-65
2021/06/17 09:18:35;;;;;;;4.18;3.88;;;38.20;99.90;;;;;;5012762;28;20683;-65
2021/06/17 09:21:05;;;;;;;4.82;4.43;;;38.10;99.90;;;;;;5012406;28;20210;-66
2021/06/17 09:23:42;;;;;;;4.30;3.58;;;37.50;99.90;;;;;;5013253;28;20267;-65
2021/06/17 09:26:17;;;;;;;3.70;3.50;;;37.40;99.90;;;;;;5013062;28;20211;-65
2021/06/17 09:29:02;;;;;;;4.28;3.97;;;37.80;99.90;;;;;;5030945;28;20265;-65
2021/06/17 09:31:30;;;;;;;4.05;3.75;;;38.00;99.90;;;;;;5029274;28;20181;-65
2021/06/17 09:33:57;;;;;;;4.18;3.88;;;38.30;99.90;;;;;;5012466;28;20176;-65
2021/06/17 09:36:32;;;;;;;4.32;4.05;;;38.70;99.90;;;;;;5013970;28;20172;-64
2021/06/17 09:39:03;;;;;;;4.57;4.18;;;39.10;99.90;;;;;;5031903;28;20261;-65
2021/06/17 09:41:43;;;;;;;4.40;3.75;;;39.60;99.90;;;;;;5030137;28;20218;-65
2021/06/17 09:44:28;;;;;;;3.97;3.67;;;40.20;99.90;;;;;;5032121;28;20191;-64
2021/06/17 09:47:07;;;;;;;4.63;4.32;;;40.20;99.90;;;;;;5026737;28;20224;-65
2021/06/17 09:49:34;;;;;;;4.25;3.95;;;40.30;99.90;;;;;;5012339;28;20860;-65
2021/06/17 09:51:59;;;;;;;3.50;3.30;;;40.30;98.40;;;;;;5013009;28;20203;-65
2021/06/17 09:54:26;;;;;;;3.92;3.72;;;40.30;99.50;;;;;;5012331;28;20507;-65
2021/06/17 09:57:00;;;;;;;3.90;3.70;;;40.30;98.30;;;;;;5014937;28;20179;-65
2021/06/17 09:59:34;;;;;;;4.20;3.90;;;40.00;97.60;;;;;;5031896;28;20266;-65
2021/06/17 10:02:00;;;;;;;4.18;3.88;;;39.70;99.90;;;;;;5027363;28;20711;-65
2021/06/17 10:04:27;;;;;;;4.03;3.72;;;39.60;98.40;;;;;;5012206;28;20180;-64
2021/06/17 10:06:53;;;;;;;3.65;3.45;;;39.50;98.70;;;;;;5013788;28;20207;-65
2021/06/17 10:09:19;;;;;;;4.47;4.18;;;39.70;99.00;;;;;;5031701;28;20202;-65
2021/06/17 10:11:46;;;;;;;4.43;4.07;;;39.70;97.30;;;;;;5030514;28;20199;-65
2021/06/17 10:14:13;;;;;;;3.42;3.20;;;39.70;97.10;;;;;;5030627;28;20191;-65
2021/06/17 10:16:42;;;;;;;3.75;3.55;;;39.50;97.90;;;;;;5031561;28;20172;-64
2021/06/17 10:19:09;;;;;;;3.83;3.53;;;39.30;96.80;;;;;;5031099;28;20637;-64
2021/06/17 10:21:35;;;;;;;3.60;3.40;;;39.10;96.00;;;;;;5031293;28;20179;-65
2021/06/17 10:24:02;;;;;;;4.30;3.75;;;39.00;96.50;;;;;;5013386;28;20188;-65
2021/06/17 10:26:30;;;;;;;4.60;4.20;;;39.10;95.90;;;;;;5011894;28;20211;-65
2021/06/17 10:28:57;;;;;;;4.72;4.43;;;39.20;98.40;;;;;;5028270;28;20294;-65
2021/06/17 10:31:49;;;;;;;4.53;4.22;;;39.40;96.10;;;;;;5030564;28;20172;-65
2021/06/17 10:34:24;;;;;;;4.13;3.83;;;39.30;97.90;;;;;;5005619;28;20295;-65
2021/06/17 10:37:09;;;;;;;4.25;3.85;;;39.60;98.20;;;;;;5011566;28;20322;-65
2021/06/17 10:40:05;;;;;;;4.05;3.72;;;39.60;98.30;;;;;;4997470;28;20672;-65
2021/06/17 10:42:35;;;;;;;4.53;4.18;;;39.80;97.60;;;;;;5012078;28;20555;-65
2021/06/17 10:45:05;;;;;;;4.40;4.10;;;39.70;96.10;;;;;;5010948;28;20645;-65
2021/06/17 10:47:44;;;;;;;4.93;4.15;;;39.70;96.60;;;;;;5022066;22;20212;-65
2021/06/17 10:50:15;;;;;;;4.28;4.00;;;39.70;96.90;;;;;;5030943;28;20179;-65
2021/06/17 10:52:43;;;;;;;4.25;3.95;;;39.40;97.30;;;;;;5030264;28;20592;-65
2021/06/17 10:55:13;;;;;;;4.10;3.80;;;39.60;97.30;;;;;;5033279;28;20656;-65
2021/06/17 10:57:51;;;;;;;3.92;3.63;;;39.80;96.40;;;;;;5015934;28;20604;-65
2021/06/17 11:00:26;;;;;;;6.78;3.97;;;39.80;95.30;;;;;;5015092;28;20184;-66
2021/06/17 11:03:36;;;;;;;4.28;3.97;;;40.00;95.70;;;;;;5034199;28;20190;-65
2021/06/17 11:06:01;;;;;;;5.22;3.90;;;40.00;95.70;;;;;;5030352;28;20560;-65
2021/06/17 11:08:28;;;;;;;4.30;3.90;;;40.20;97.10;;;;;;5014920;28;20200;-65
2021/06/17 11:11:05;;;;;;;4.10;3.80;;;40.30;95.10;;;;;;5016877;28;20180;-65
2021/06/17 11:13:49;;;;;;;3.97;3.78;;;40.10;94.10;;;;;;5034576;28;20550;-65
2021/06/17 11:16:18;;;;;;;4.63;4.13;;;40.20;94.40;;;;;;5029680;28;20267;-65
2021/06/17 11:18:51;;;;;;;4.03;3.72;;;40.00;94.50;;;;;;5014627;28;20715;-65
2021/06/17 11:24:07;;;;;;;4.78;4.28;;;39.90;94.50;;;;;;5034431;28;20183;-65
2021/06/17 11:26:36;;;;;;;4.57;4.28;;;39.70;93.40;;;;;;5028098;28;20208;-65
2021/06/17 11:29:03;;;;;;;5.57;5.28;;;39.50;94.50;;;;;;5014522;28;21191;-64
2021/06/17 11:31:36;;;;;;;5.05;4.75;;;39.40;94.90;;;;;;5015510;28;20234;-65
2021/06/17 11:34:02;;;;;;;4.97;4.57;;;39.40;94.90;;;;;;5014825;28;20520;-65
2021/06/17 11:36:27;;;;;;;5.70;5.10;;;39.30;93.50;;;;;;5019110;28;20172;-65
2021/06/17 11:38:53;;;;;;;5.35;4.95;;;39.30;94.70;;;;;;5034149;28;20195;-65
2021/06/17 11:41:22;;;;;;;5.30;4.80;;;39.30;94.10;;;;;;5030991;28;20190;-65
2021/06/17 11:43:52;;;;;;;4.93;4.30;;;39.50;94.00;;;;;;5014542;28;20176;-64
2021/06/17 11:46:23;;;;;;;4.93;4.63;;;39.60;93.10;;;;;;5016599;28;20204;-65
2021/06/17 11:48:52;;;;;;;5.03;4.60;;;39.40;95.10;;;;;;5016147;28;20705;-65
2021/06/17 11:51:18;;;;;;;4.00;3.70;;;39.20;94.40;;;;;;5014283;28;20214;-65
2021/06/17 11:53:49;;;;;;;4.18;3.88;;;38.70;94.10;;;;;;5014164;28;20200;-65
2021/06/17 11:56:26;;;;;;;4.57;4.18;;;38.40;94.40;;;;;;5014897;28;20173;-64
2021/06/17 11:58:51;;;;;;;6.10;4.60;;;38.40;94.70;;;;;;5033892;28;20222;-65
2021/06/17 12:01:17;;;;;;;4.30;4.00;;;38.70;95.00;;;;;;5033083;28;20540;-65
2021/06/17 12:04:02;;;;;;;4.88;4.25;;;39.10;93.20;;;;;;5014109;28;20223;-66
2021/06/17 12:06:28;;;;;;;4.18;3.88;;;39.20;94.80;;;;;;5014745;28;20222;-66
2021/06/17 12:09:07;;;;;;;4.22;3.92;;;39.20;94.60;;;;;;5014977;28;20799;-65
2021/06/17 12:11:34;;;;;;;4.50;4.20;;;39.20;94.80;;;;;;5029178;28;20180;-66
2021/06/17 12:14:02;;;;;;;4.45;4.15;;;39.40;93.70;;;;;;5032567;28;20510;-65
2021/06/17 12:16:27;;;;;;;5.22;4.82;;;39.60;94.50;;;;;;5029373;28;20176;-64
2021/06/17 12:18:53;;;;;;;4.47;4.18;;;39.40;93.20;;;;;;5013674;28;20188;-66
2021/06/17 12:21:33;;;;;;;5.95;5.55;;;39.50;93.60;;;;;;5015642;28;20183;-66
2021/06/17 12:24:00;;;;;;;4.40;4.07;;;39.80;94.60;;;;;;5019965;28;20190;-66
2021/06/17 12:26:31;;;;;;;3.92;3.63;;;40.50;92.30;;;;;;5016341;28;20567;-64
2021/06/17 12:29:01;;;;;;;4.50;4.20;;;41.00;92.20;;;;;;5033282;28;20194;-65
2021/06/17 12:31:38;;;;;;;4.82;4.32;;;40.70;93.40;;;;;;5032259;28;20172;-65
2021/06/17 12:34:19;;;;;;;4.88;4.47;;;41.10;93.40;;;;;;5022658;28;20172;-65
2021/06/17 12:36:57;;;;;;;4.85;4.55;;;41.40;92.10;;;;;;5033167;28;20182;-66
2021/06/17 12:39:23;;;;;;;5.53;4.50;;;41.60;90.60;;;;;;5014056;28;21001;-66
2021/06/17 12:41:50;;;;;;;7.97;4.40;;;41.30;91.60;;;;;;5013048;28;20294;-66
2021/06/17 12:44:35;;;;;;;4.90;3.72;;;41.50;92.30;;;;;;5013542;28;20188;-66
2021/06/17 12:47:04;;;;;;;4.13;3.83;;;41.90;91.80;;;;;;5018351;28;20203;-65
2021/06/17 12:52:23;;;;;;;4.68;4.32;;;41.60;91.20;;;;;;5031475;28;20263;-65
2021/06/17 12:54:53;;;;;;;5.03;4.65;;;42.00;91.70;;;;;;5032833;28;20167;-65
2021/06/17 12:57:24;;;;;;;4.88;4.50;;;42.00;91.20;;;;;;5013060;28;20179;-66
2021/06/17 13:00:02;;;;;;;4.55;4.15;;;42.40;90.80;;;;;;5012902;28;20227;-65
2021/06/17 13:02:31;;;;;;;4.35;4.05;;;42.80;90.60;;;;;;5013127;28;20187;-66
2021/06/17 13:04:59;;;;;;;5.53;4.18;;;42.80;91.20;;;;;;5013948;28;20196;-65